createdAt,value
2019-01-27T00:01:04.817Z,99193.23
2019-01-27T00:03:35.809Z,99186.95
2019-01-27T00:06:02.973Z,99187.19
2019-01-27T00:08:30.366Z,99188.37
2019-01-27T00:10:57.529Z,99184.11
2019-01-27T00:13:24.629Z,99179.45
2019-01-27T00:15:51.857Z,99175.23
2019-01-27T00:18:19.056Z,99170.69
2019-01-27T00:20:46.724Z,99164.16
2019-01-27T00:23:14.029Z,99160.52
2019-01-27T00:25:41.476Z,99153.30
2019-01-27T00:28:08.585Z,99150.20
2019-01-27T00:30:36.160Z,99142.88
2019-01-27T00:33:03.221Z,99137.97
2019-01-27T00:35:30.954Z,99134.06
2019-01-27T00:37:58.617Z,99136.53
2019-01-27T00:40:25.776Z,99130.09
2019-01-27T00:42:53.207Z,99120.11
2019-01-27T00:45:20.416Z,99124.83
2019-01-27T00:47:47.489Z,99116.45
2019-01-27T00:50:15.896Z,99115.66
2019-01-27T00:52:43.282Z,99111.43
2019-01-27T00:55:13.563Z,99104.51
2019-01-27T00:57:40.642Z,99100.95
2019-01-27T01:00:11.171Z,99096.44
2019-01-27T01:02:38.662Z,99089.02
2019-01-27T01:05:06.886Z,99086.35
2019-01-27T01:07:34.446Z,99086.17
2019-01-27T01:10:02.927Z,99076.20
2019-01-27T01:12:30.282Z,99070.05
2019-01-27T01:14:57.641Z,99068.89
2019-01-27T01:17:25.094Z,99068.23
2019-01-27T01:19:52.271Z,99064.63
2019-01-27T01:22:19.414Z,99057.67
2019-01-27T01:24:46.585Z,99053.33
2019-01-27T01:27:13.951Z,99050.95
2019-01-27T01:29:41.394Z,99045.31
2019-01-27T01:32:08.860Z,99034.91
2019-01-27T01:34:35.934Z,99037.91
2019-01-27T01:37:03.039Z,99024.33
2019-01-27T01:39:30.223Z,99025.14
2019-01-27T01:41:57.353Z,99018.57
2019-01-27T01:44:24.422Z,99018.45
2019-01-27T01:46:51.553Z,99011.03
2019-01-27T01:49:18.614Z,99009.33
2019-01-27T01:51:45.701Z,99006.31
2019-01-27T01:54:12.872Z,98996.95
2019-01-27T01:56:42.266Z,98996.93
2019-01-27T01:59:09.438Z,98993.98
2019-01-27T02:01:36.824Z,98988.05
2019-01-27T02:04:04.416Z,98989.56
2019-01-27T02:06:32.793Z,98977.01
2019-01-27T02:09:00.152Z,98970.45
2019-01-27T02:11:27.637Z,98963.77
2019-01-27T02:13:55.588Z,98955.03
2019-01-27T02:16:22.664Z,98942.47
2019-01-27T02:18:50.076Z,98942.86
2019-01-27T02:21:17.533Z,98938.59
2019-01-27T02:23:46.402Z,98927.47
2019-01-27T02:26:13.693Z,98924.43
2019-01-27T02:28:40.880Z,98921.42
2019-01-27T02:31:08.335Z,98907.00
2019-01-27T02:33:35.398Z,98911.23
2019-01-27T02:36:02.649Z,98914.90
2019-01-27T02:38:29.844Z,98908.88
2019-01-27T02:40:56.938Z,98897.12
2019-01-27T02:43:24.005Z,98896.55
2019-01-27T02:45:51.535Z,98900.74
2019-01-27T02:48:19.070Z,98884.03
2019-01-27T02:50:46.263Z,98875.75
2019-01-27T02:53:13.338Z,98877.92
2019-01-27T02:55:40.525Z,98877.11
2019-01-27T02:58:07.586Z,98868.28
2019-01-27T03:00:35.439Z,98866.22
2019-01-27T03:03:04.327Z,98856.31
2019-01-27T03:05:51.086Z,98856.59
2019-01-27T03:08:20.003Z,98846.74
2019-01-27T03:10:47.102Z,98849.67
2019-01-27T03:13:14.165Z,98836.42
2019-01-27T03:15:41.388Z,98837.62
2019-01-27T03:18:08.472Z,98824.47
2019-01-27T03:20:35.860Z,98818.75
2019-01-27T03:23:03.623Z,98811.89
2019-01-27T03:25:31.694Z,98815.84
2019-01-27T03:27:59.038Z,98807.81
2019-01-27T03:30:26.114Z,98800.01
2019-01-27T03:32:53.707Z,98804.36
2019-01-27T03:35:20.798Z,98792.98
2019-01-27T03:37:48.562Z,98791.35
2019-01-27T03:40:16.023Z,98789.02
2019-01-27T03:42:43.782Z,98790.13
2019-01-27T03:45:12.760Z,98780.04
2019-01-27T03:47:39.964Z,98780.37
2019-01-27T03:50:09.625Z,98770.56
2019-01-27T03:52:36.809Z,98771.80
2019-01-27T03:55:08.010Z,98770.12
2019-01-27T03:57:35.161Z,98765.73
2019-01-27T04:00:03.023Z,98763.98
2019-01-27T04:02:30.190Z,98754.30
2019-01-27T04:04:57.377Z,98757.14
2019-01-27T04:07:24.445Z,98749.63
2019-01-27T04:09:51.530Z,98747.19
2019-01-27T04:12:18.604Z,98742.25
2019-01-27T04:14:45.736Z,98740.84
2019-01-27T04:17:15.250Z,98732.83
2019-01-27T04:19:42.718Z,98724.00
2019-01-27T04:22:09.786Z,98724.01
2019-01-27T04:24:39.050Z,98721.30
2019-01-27T04:27:06.503Z,98721.82
2019-01-27T04:29:35.322Z,98715.53
2019-01-27T04:32:02.699Z,98722.63
2019-01-27T04:34:31.239Z,98711.42
2019-01-27T04:36:58.419Z,98714.52
2019-01-27T04:39:25.510Z,98704.31
2019-01-27T04:41:53.679Z,98708.39
2019-01-27T04:44:22.128Z,98695.02
2019-01-27T04:46:49.843Z,98688.67
2019-01-27T04:49:17.712Z,98688.78
2019-01-27T04:51:45.166Z,98690.82
2019-01-27T04:54:13.508Z,98686.17
2019-01-27T04:56:40.838Z,98689.63
2019-01-27T04:59:08.230Z,98679.17
2019-01-27T05:01:36.014Z,98673.54
2019-01-27T05:04:16.386Z,98672.51
2019-01-27T05:06:43.936Z,98672.85
2019-01-27T05:09:11.016Z,98660.44
2019-01-27T05:11:38.748Z,98660.55
2019-01-27T05:14:06.245Z,98659.83
2019-01-27T05:16:34.895Z,98654.16
2019-01-27T05:19:02.446Z,98650.89
2019-01-27T05:21:29.613Z,98655.34
2019-01-27T05:23:57.361Z,98644.72
2019-01-27T05:26:24.776Z,98646.43
2019-01-27T05:28:52.485Z,98635.57
2019-01-27T05:31:19.660Z,98633.94
2019-01-27T05:33:47.093Z,98639.52
2019-01-27T05:36:14.265Z,98634.76
2019-01-27T05:38:41.382Z,98630.77
2019-01-27T05:41:09.514Z,98630.71
2019-01-27T05:43:36.699Z,98617.77
2019-01-27T05:46:04.170Z,98612.51
2019-01-27T05:48:31.364Z,98607.40
2019-01-27T05:50:58.533Z,98608.02
2019-01-27T05:53:25.969Z,98600.15
2019-01-27T05:55:53.903Z,98607.09
2019-01-27T05:58:21.354Z,98605.56
2019-01-27T06:00:48.549Z,98603.87
2019-01-27T06:03:15.917Z,98607.20
2019-01-27T06:05:43.305Z,98603.79
2019-01-27T06:08:12.096Z,98597.94
2019-01-27T06:10:39.441Z,98594.31
2019-01-27T06:13:07.013Z,98599.45
2019-01-27T06:15:34.981Z,98600.00
2019-01-27T06:18:02.433Z,98596.86
2019-01-27T06:20:29.889Z,98595.12
2019-01-27T06:22:57.757Z,98590.51
2019-01-27T06:25:26.270Z,98589.61
2019-01-27T06:27:54.105Z,98588.30
2019-01-27T06:30:23.098Z,98577.09
2019-01-27T06:33:06.083Z,98572.01
2019-01-27T06:35:33.473Z,98569.20
2019-01-27T06:38:01.873Z,98566.76
2019-01-27T06:40:31.072Z,98557.83
2019-01-27T06:42:58.526Z,98552.23
2019-01-27T06:45:25.599Z,98558.39
2019-01-27T06:47:52.668Z,98551.69
2019-01-27T06:50:20.471Z,98551.61
2019-01-27T06:52:49.374Z,98544.13
2019-01-27T06:55:17.593Z,98538.86
2019-01-27T06:57:44.847Z,98535.39
2019-01-27T07:00:35.116Z,98531.57
2019-01-27T07:03:17.403Z,98533.19
2019-01-27T07:06:05.422Z,98525.51
2019-01-27T07:08:52.381Z,98530.46
2019-01-27T07:11:34.847Z,98525.84
2019-01-27T07:14:22.066Z,98527.99
2019-01-27T07:17:15.060Z,98516.03
2019-01-27T07:20:00.673Z,98512.28
2019-01-27T07:22:59.778Z,98513.20
2019-01-27T07:25:45.906Z,98498.43
2019-01-27T07:28:38.730Z,98499.61
2019-01-27T07:31:38.883Z,98505.88
2019-01-27T07:34:26.106Z,98504.84
2019-01-27T07:37:12.082Z,98508.20
2019-01-27T07:39:59.198Z,98506.64
2019-01-27T07:42:35.366Z,98505.66
2019-01-27T07:45:29.261Z,98501.82
2019-01-27T07:48:05.265Z,98503.52
2019-01-27T07:50:45.857Z,98501.28
2019-01-27T07:53:32.653Z,98495.81
2019-01-27T07:56:19.423Z,98491.33
2019-01-27T07:59:06.166Z,98492.45
2019-01-27T08:02:11.292Z,98486.82
2019-01-27T08:05:02.759Z,98493.70
2019-01-27T08:07:44.955Z,98490.36
2019-01-27T08:10:41.080Z,98483.32
2019-01-27T08:13:37.103Z,98484.66
2019-01-27T08:16:33.357Z,98472.45
2019-01-27T08:19:22.667Z,98474.80
2019-01-27T08:21:56.413Z,98470.17
2019-01-27T08:24:59.195Z,98468.55
2019-01-27T08:27:37.502Z,98463.44
2019-01-27T08:30:27.496Z,98459.53
2019-01-27T08:33:17.583Z,98456.37
2019-01-27T08:36:07.357Z,98450.34
2019-01-27T08:38:57.246Z,98447.26
2019-01-27T08:41:47.819Z,98454.59
2019-01-27T08:44:37.162Z,98447.09
2019-01-27T08:47:04.240Z,98441.95
2019-01-27T08:49:33.337Z,98446.50
2019-01-27T08:52:00.941Z,98441.73
2019-01-27T08:54:28.117Z,98433.55
2019-01-27T08:56:55.173Z,98437.21
2019-01-27T08:59:22.262Z,98431.95
2019-01-27T09:02:07.584Z,98429.36
2019-01-27T09:04:48.899Z,98427.86
2019-01-27T09:07:46.176Z,98430.36
2019-01-27T09:10:26.635Z,98424.32
2019-01-27T09:13:15.558Z,98420.61
2019-01-27T09:16:03.225Z,98422.77
2019-01-27T09:18:41.843Z,98418.28
2019-01-27T09:21:24.044Z,98417.22
2019-01-27T09:24:09.936Z,98417.41
2019-01-27T09:26:43.310Z,98418.55
2019-01-27T09:29:31.840Z,98410.19
2019-01-27T09:32:22.152Z,98409.59
2019-01-27T09:35:03.927Z,98407.67
2019-01-27T09:37:56.713Z,98407.15
2019-01-27T09:40:58.734Z,98397.42
2019-01-27T09:43:48.447Z,98409.91
2019-01-27T09:46:35.473Z,98404.42
2019-01-27T09:49:14.174Z,98408.94
2019-01-27T09:52:00.783Z,98405.17
2019-01-27T09:54:37.661Z,98405.70
2019-01-27T09:57:12.157Z,98401.84
2019-01-27T09:59:50.827Z,98399.89
2019-01-27T10:02:40.915Z,98398.25
2019-01-27T10:05:24.040Z,98405.05
2019-01-27T10:08:03.061Z,98399.14
2019-01-27T10:11:00.012Z,98397.42
2019-01-27T10:13:40.154Z,98401.22
2019-01-27T10:16:25.857Z,98397.30
2019-01-27T10:19:21.667Z,98393.38
2019-01-27T10:21:54.102Z,98393.84
2019-01-27T10:24:42.587Z,98394.34
2019-01-27T10:27:34.277Z,98389.99
2019-01-27T10:30:24.915Z,98387.53
2019-01-27T10:33:08.102Z,98387.19
2019-01-27T10:36:10.218Z,98384.16
2019-01-27T10:38:59.595Z,98383.08
2019-01-27T10:41:33.263Z,98379.06
2019-01-27T10:44:06.541Z,98374.39
2019-01-27T10:46:53.263Z,98375.19
2019-01-27T10:49:48.732Z,98377.30
2019-01-27T10:52:42.843Z,98359.82
2019-01-27T10:55:30.697Z,98362.66
2019-01-27T10:58:19.180Z,98355.03
2019-01-27T11:01:05.954Z,98356.66
2019-01-27T11:03:57.210Z,98351.62
2019-01-27T11:06:43.889Z,98357.64
2019-01-27T11:09:28.874Z,98348.87
2019-01-27T11:12:21.985Z,98343.33
2019-01-27T11:15:07.333Z,98343.83
2019-01-27T11:18:10.307Z,98330.63
2019-01-27T11:21:06.335Z,98320.11
2019-01-27T11:23:52.986Z,98318.91
2019-01-27T11:26:35.157Z,98322.83
2019-01-27T11:29:36.950Z,98319.41
2019-01-27T11:32:42.079Z,98316.66
2019-01-27T11:35:27.602Z,98308.97
2019-01-27T11:38:32.574Z,98300.73
2019-01-27T11:41:21.995Z,98304.30
2019-01-27T11:44:01.643Z,98296.81
2019-01-27T11:46:57.455Z,98286.41
2019-01-27T11:49:44.514Z,98291.29
2019-01-27T11:52:31.439Z,98289.02
2019-01-27T11:54:58.717Z,98280.80
2019-01-27T11:57:26.737Z,98282.30
2019-01-27T11:59:54.290Z,98279.89
2019-01-27T12:02:21.808Z,98282.16
2019-01-27T12:04:48.884Z,98276.63
2019-01-27T12:07:15.963Z,98276.95
2019-01-27T12:09:43.105Z,98274.38
2019-01-27T12:12:10.561Z,98273.55
2019-01-27T12:14:37.631Z,98273.70
2019-01-27T12:17:04.782Z,98268.49
2019-01-27T12:19:32.931Z,98260.70
2019-01-27T12:22:00.130Z,98257.08
2019-01-27T12:24:28.319Z,98255.82
2019-01-27T12:26:55.395Z,98254.05
2019-01-27T12:29:22.691Z,98251.55
2019-01-27T12:31:49.782Z,98252.08
2019-01-27T12:34:17.963Z,98242.14
2019-01-27T12:36:45.448Z,98245.44
2019-01-27T12:39:12.524Z,98244.62
2019-01-27T12:41:39.868Z,98244.09
2019-01-27T12:44:08.032Z,98243.19
2019-01-27T12:46:35.336Z,98243.61
2019-01-27T12:49:04.453Z,98238.56
2019-01-27T12:51:31.560Z,98235.48
2019-01-27T12:53:58.951Z,98247.05
2019-01-27T12:56:26.041Z,98231.73
2019-01-27T12:58:53.118Z,98232.34
2019-01-27T13:01:20.242Z,98228.73
2019-01-27T13:03:47.309Z,98228.09
2019-01-27T13:06:14.846Z,98229.66
2019-01-27T13:08:41.922Z,98228.80
2019-01-27T13:11:09.389Z,98228.17
2019-01-27T13:13:39.476Z,98221.88
2019-01-27T13:16:06.983Z,98228.55
2019-01-27T13:18:34.335Z,98218.52
2019-01-27T13:21:01.419Z,98220.05
2019-01-27T13:23:28.943Z,98220.17
2019-01-27T13:25:56.338Z,98217.77
2019-01-27T13:28:25.601Z,98220.28
2019-01-27T13:30:52.678Z,98217.26
2019-01-27T13:33:20.108Z,98219.73
2019-01-27T13:35:48.274Z,98218.14
2019-01-27T13:38:16.511Z,98219.83
2019-01-27T13:40:43.627Z,98218.00
2019-01-27T13:43:12.042Z,98213.45
2019-01-27T13:45:39.279Z,98219.05
2019-01-27T13:48:07.437Z,98220.62
2019-01-27T13:50:34.759Z,98214.41
2019-01-27T13:53:01.849Z,98218.11
2019-01-27T13:55:29.404Z,98219.62
2019-01-27T13:57:56.504Z,98204.34
2019-01-27T14:00:26.030Z,98204.03
2019-01-27T14:02:53.113Z,98209.75
2019-01-27T14:05:20.266Z,98209.44
2019-01-27T14:07:47.351Z,98202.66
2019-01-27T14:10:16.798Z,98201.45
2019-01-27T14:12:43.922Z,98200.44
2019-01-27T14:15:14.348Z,98207.61
2019-01-27T14:17:43.264Z,98202.44
2019-01-27T14:20:12.315Z,98201.32
2019-01-27T14:22:40.546Z,98199.19
2019-01-27T14:25:09.209Z,98201.49
2019-01-27T14:27:36.398Z,98199.11
2019-01-27T14:30:05.425Z,98199.73
2019-01-27T14:32:32.912Z,98197.17
2019-01-27T14:35:00.334Z,98197.31
2019-01-27T14:37:28.109Z,98196.53
2019-01-27T14:39:55.554Z,98199.80
2019-01-27T14:42:22.593Z,98199.77
2019-01-27T14:44:50.134Z,98198.72
2019-01-27T14:47:17.172Z,98190.50
2019-01-27T14:49:45.093Z,98193.64
2019-01-27T14:52:12.139Z,98202.80
2019-01-27T14:54:39.213Z,98199.11
2019-01-27T14:57:06.282Z,98196.14
2019-01-27T14:59:33.697Z,98204.28
2019-01-27T15:02:01.938Z,98201.22
2019-01-27T15:04:29.579Z,98203.78
2019-01-27T15:06:59.149Z,98204.17
2019-01-27T15:09:26.313Z,98208.92
2019-01-27T15:11:53.351Z,98202.29
2019-01-27T15:14:20.995Z,98212.80
2019-01-27T15:16:48.185Z,98210.85
2019-01-27T15:19:15.257Z,98214.12
2019-01-27T15:21:44.482Z,98212.50
2019-01-27T15:24:12.142Z,98208.59
2019-01-27T15:26:39.514Z,98203.73
2019-01-27T15:29:07.120Z,98206.84
2019-01-27T15:31:34.927Z,98205.02
2019-01-27T15:34:01.999Z,98207.61
2019-01-27T15:36:31.270Z,98213.36
2019-01-27T15:38:58.806Z,98211.55
2019-01-27T15:41:26.876Z,98209.75
2019-01-27T15:43:54.334Z,98205.62
2019-01-27T15:46:21.409Z,98211.45
2019-01-27T15:48:48.485Z,98210.05
2019-01-27T15:51:15.566Z,98218.17
2019-01-27T15:53:43.001Z,98218.34
2019-01-27T15:56:10.539Z,98213.48
2019-01-27T15:58:37.997Z,98217.58
2019-01-27T16:01:05.087Z,98214.30
2019-01-27T16:03:35.067Z,98206.92
2019-01-27T16:06:02.746Z,98209.70
2019-01-27T16:08:29.942Z,98211.52
2019-01-27T16:10:57.303Z,98223.88
2019-01-27T16:13:24.687Z,98221.30
2019-01-27T16:15:51.769Z,98224.27
2019-01-27T16:18:18.831Z,98222.97
2019-01-27T16:20:46.718Z,98219.99
2019-01-27T16:23:32.407Z,98220.70
2019-01-27T16:26:00.987Z,98221.36
2019-01-27T16:28:29.421Z,98226.87
2019-01-27T16:31:16.305Z,98228.31
2019-01-27T16:34:02.270Z,98222.64
2019-01-27T16:36:29.370Z,98225.49
2019-01-27T16:38:57.099Z,98230.28
2019-01-27T16:41:24.183Z,98224.92
2019-01-27T16:43:52.310Z,98224.26
2019-01-27T16:46:19.922Z,98227.19
2019-01-27T16:48:46.989Z,98226.39
2019-01-27T16:51:14.363Z,98231.39
2019-01-27T16:53:42.235Z,98224.53
2019-01-27T16:56:09.336Z,98226.01
2019-01-27T16:58:36.395Z,98232.20
2019-01-27T17:01:04.547Z,98231.39
2019-01-27T17:03:31.593Z,98236.94
2019-01-27T17:05:59.736Z,98233.33
2019-01-27T17:08:26.925Z,98232.84
2019-01-27T17:10:54.234Z,98231.37
2019-01-27T17:13:21.306Z,98231.80
2019-01-27T17:15:48.680Z,98231.41
2019-01-27T17:18:16.801Z,98234.14
2019-01-27T17:20:43.966Z,98229.10
2019-01-27T17:23:11.055Z,98231.39
2019-01-27T17:25:38.313Z,98227.75
2019-01-27T17:28:05.534Z,98231.05
2019-01-27T17:30:32.693Z,98234.89
2019-01-27T17:33:00.199Z,98227.63
2019-01-27T17:35:27.251Z,98237.26
2019-01-27T17:37:54.636Z,98231.73
2019-01-27T17:40:23.502Z,98233.67
2019-01-27T17:42:50.700Z,98237.89
2019-01-27T17:45:17.784Z,98233.50
2019-01-27T17:47:45.473Z,98242.16
2019-01-27T17:50:14.256Z,98239.56
2019-01-27T17:52:41.370Z,98240.22
2019-01-27T17:55:12.182Z,98235.44
2019-01-27T17:57:54.943Z,98240.52
2019-01-27T18:00:54.152Z,98240.67
2019-01-27T18:03:31.918Z,98240.69
2019-01-27T18:06:06.128Z,98238.25
2019-01-27T18:08:43.746Z,98245.08
2019-01-27T18:11:27.671Z,98236.91
2019-01-27T18:13:59.652Z,98241.16
2019-01-27T18:16:26.719Z,98236.02
2019-01-27T18:18:53.795Z,98246.88
2019-01-27T18:21:20.842Z,98244.87
2019-01-27T18:23:48.572Z,98248.75
2019-01-27T18:26:17.403Z,98249.29
2019-01-27T18:28:45.018Z,98245.48
2019-01-27T18:31:12.431Z,98251.53
2019-01-27T18:33:39.498Z,98253.47
2019-01-27T18:36:06.554Z,98247.01
2019-01-27T18:38:33.618Z,98256.45
2019-01-27T18:41:01.074Z,98259.74
2019-01-27T18:43:28.477Z,98257.44
2019-01-27T18:45:55.546Z,98262.77
2019-01-27T18:48:22.602Z,98263.95
2019-01-27T18:50:49.998Z,98266.80
2019-01-27T18:53:36.655Z,98266.51
2019-01-27T18:56:14.679Z,98275.19
2019-01-27T18:59:13.113Z,98271.22
2019-01-27T19:01:58.931Z,98272.75
2019-01-27T19:04:33.769Z,98277.70
2019-01-27T19:07:19.124Z,98280.19
2019-01-27T19:10:08.401Z,98279.84
2019-01-27T19:12:52.073Z,98284.73
2019-01-27T19:15:37.597Z,98288.36
2019-01-27T19:18:26.913Z,98300.01
2019-01-27T19:21:07.869Z,98304.27
2019-01-27T19:23:54.524Z,98297.14
2019-01-27T19:26:41.223Z,98300.35
2019-01-27T19:29:31.730Z,98297.42
2019-01-27T19:32:24.698Z,98302.50
2019-01-27T19:35:09.365Z,98300.05
2019-01-27T19:37:55.095Z,98306.89
2019-01-27T19:40:31.867Z,98308.52
2019-01-27T19:43:15.380Z,98307.89
2019-01-27T19:46:00.757Z,98304.14
2019-01-27T19:48:46.369Z,98320.89
2019-01-27T19:51:22.919Z,98322.84
2019-01-27T19:54:09.709Z,98319.91
2019-01-27T19:57:05.465Z,98328.72
2019-01-27T19:59:56.419Z,98326.43
2019-01-27T20:02:40.195Z,98335.20
2019-01-27T20:05:16.943Z,98339.76
2019-01-27T20:07:53.996Z,98341.04
2019-01-27T20:10:39.565Z,98343.67
2019-01-27T20:13:14.350Z,98351.28
2019-01-27T20:15:58.631Z,98350.66
2019-01-27T20:18:51.293Z,98353.41
2019-01-27T20:21:41.229Z,98351.44
2019-01-27T20:24:20.829Z,98356.33
2019-01-27T20:27:13.808Z,98367.74
2019-01-27T20:30:04.169Z,98358.60
2019-01-27T20:32:49.917Z,98361.86
2019-01-27T20:35:35.377Z,98367.89
2019-01-27T20:38:26.624Z,98371.78
2019-01-27T20:41:25.610Z,98368.66
2019-01-27T20:44:28.758Z,98369.16
2019-01-27T20:47:06.183Z,98376.33
2019-01-27T20:49:56.685Z,98382.34
2019-01-27T20:52:52.227Z,98382.34
2019-01-27T20:55:48.779Z,98383.97
2019-01-27T20:58:34.453Z,98385.27
2019-01-27T21:01:25.567Z,98390.47
2019-01-27T21:04:15.270Z,98393.39
2019-01-27T21:06:55.154Z,98389.19
2019-01-27T21:09:41.931Z,98395.17
2019-01-27T21:12:33.010Z,98397.53
2019-01-27T21:15:10.172Z,98401.81
2019-01-27T21:18:03.462Z,98403.73
2019-01-27T21:20:31.162Z,98399.81
2019-01-27T21:22:58.298Z,98396.16
2019-01-27T21:25:25.393Z,98407.84
2019-01-27T21:27:52.978Z,98402.94
2019-01-27T21:30:20.657Z,98403.95
2019-01-27T21:32:47.777Z,98418.53
2019-01-27T21:35:15.218Z,98422.64
2019-01-27T21:37:42.559Z,98422.64
2019-01-27T21:40:13.576Z,98423.56
2019-01-27T21:42:47.357Z,98426.34
2019-01-27T21:45:12.599Z,98431.09
2019-01-27T21:47:40.109Z,98430.19
2019-01-27T21:50:10.842Z,98428.86
2019-01-27T21:52:39.103Z,98435.51
2019-01-27T21:55:06.529Z,98435.95
2019-01-27T21:57:33.961Z,98446.72
2019-01-27T22:00:01.118Z,98443.91
2019-01-27T22:02:28.594Z,98446.67
2019-01-27T22:04:56.330Z,98447.60
2019-01-27T22:07:25.537Z,98462.16
2019-01-27T22:09:53.318Z,98462.70
2019-01-27T22:12:20.815Z,98470.33
2019-01-27T22:14:49.202Z,98467.42
2019-01-27T22:17:17.357Z,98468.93
2019-01-27T22:19:44.727Z,98470.83
2019-01-27T22:22:11.806Z,98478.98
2019-01-27T22:24:39.335Z,98482.28
2019-01-27T22:27:07.203Z,98480.55
2019-01-27T22:29:37.062Z,98480.60
2019-01-27T22:32:04.132Z,98490.08
2019-01-27T22:34:32.136Z,98491.26
2019-01-27T22:36:59.217Z,98490.78
2019-01-27T22:39:28.081Z,98495.21
2019-01-27T22:41:55.480Z,98494.11
2019-01-27T22:44:24.109Z,98495.44
2019-01-27T22:46:51.281Z,98495.90
2019-01-27T22:49:18.719Z,98491.73
2019-01-27T22:51:45.799Z,98496.00
2019-01-27T22:54:14.110Z,98496.99
2019-01-27T22:56:41.902Z,98494.48
2019-01-27T22:59:09.566Z,98501.06
2019-01-27T23:01:36.921Z,98505.02
2019-01-27T23:04:05.502Z,98509.33
2019-01-27T23:06:34.086Z,98508.19
2019-01-27T23:09:04.045Z,98512.83
2019-01-27T23:11:33.839Z,98519.95
2019-01-27T23:14:01.195Z,98519.56
2019-01-27T23:16:28.313Z,98513.33
2019-01-27T23:18:55.669Z,98513.87
2019-01-27T23:21:22.734Z,98513.20
2019-01-27T23:23:50.380Z,98517.52
2019-01-27T23:26:18.140Z,98526.50
2019-01-27T23:28:45.607Z,98523.70
2019-01-27T23:31:13.725Z,98524.63
2019-01-27T23:33:41.130Z,98533.28
2019-01-27T23:36:08.488Z,98530.81
2019-01-27T23:38:35.914Z,98536.62
2019-01-27T23:41:04.727Z,98537.13
2019-01-27T23:43:31.805Z,98536.41
2019-01-27T23:45:59.231Z,98553.55
2019-01-27T23:48:26.321Z,98548.30
2019-01-27T23:50:53.411Z,98555.26
2019-01-27T23:53:21.189Z,98567.44
2019-01-27T23:55:48.243Z,98564.32
2019-01-27T23:58:16.008Z,98560.92
